Time;durP1;ratioP1;P1;durP2;ratioP2;P2;SDS_P1;SDS_P2;PMS_P1;PMS_P2;Temp;Humidity;BMP_temperature;BMP_pressure;BME280_temperature;BME280_humidity;BME280_pressure;Samples;Min_cycle;Max_cycle;Signal;HPM_P1;HPM_P2
2024/01/11 00:02:14;;;;;;;491.93;181.73;;;-13.00;99.90;;;;;;5019763;28;20075;-82
2024/01/11 00:04:40;;;;;;;458.43;163.17;;;-13.00;99.90;;;;;;5015325;28;20049;-79
2024/01/11 00:07:06;;;;;;;445.13;158.13;;;-13.00;99.90;;;;;;5026123;28;20022;-82
2024/01/11 00:09:31;;;;;;;459.63;154.97;;;-12.90;99.90;;;;;;5017583;28;20030;-79
2024/01/11 00:11:57;;;;;;;458.47;157.53;;;-12.90;99.90;;;;;;5011538;28;20390;-83
2024/01/11 00:14:23;;;;;;;428.83;150.97;;;-12.90;99.90;;;;;;5012765;28;20042;-79
2024/01/11 00:16:48;;;;;;;446.90;152.77;;;-12.90;99.90;;;;;;5011253;28;20474;-80
2024/01/11 00:19:14;;;;;;;445.27;154.27;;;-12.90;99.90;;;;;;5023051;28;20069;-80
2024/01/11 00:21:40;;;;;;;428.80;147.73;;;-13.00;99.90;;;;;;5018948;28;20022;-82
2024/01/11 00:24:05;;;;;;;387.53;134.63;;;-13.00;99.90;;;;;;5013138;28;20480;-83
2024/01/11 00:26:31;;;;;;;343.20;115.83;;;-13.00;99.90;;;;;;5011127;28;20390;-79
2024/01/11 00:28:57;;;;;;;345.20;115.63;;;-13.00;99.90;;;;;;5012768;28;20101;-79
2024/01/11 00:31:22;;;;;;;371.07;119.40;;;-13.00;99.90;;;;;;5012543;28;20316;-79
2024/01/11 00:33:48;;;;;;;364.07;121.63;;;-13.00;99.90;;;;;;5015227;28;20071;-80
2024/01/11 00:36:20;;;;;;;369.63;122.17;;;-12.90;99.90;;;;;;5022407;28;20021;-82
2024/01/11 00:38:46;;;;;;;335.33;115.72;;;-12.90;99.90;;;;;;5018716;28;20026;-82
2024/01/11 00:41:12;;;;;;;367.33;125.07;;;-13.00;99.90;;;;;;5021949;28;20017;-79
2024/01/11 00:43:37;;;;;;;378.77;123.63;;;-13.00;99.90;;;;;;5017656;28;20026;-79
2024/01/11 00:46:03;;;;;;;383.90;130.03;;;-13.10;99.90;;;;;;5023116;28;20022;-79
2024/01/11 00:48:28;;;;;;;374.83;129.93;;;-13.10;99.90;;;;;;5018029;28;20040;-83
2024/01/11 00:50:54;;;;;;;354.87;122.33;;;-13.20;99.90;;;;;;5021396;28;20014;-78
2024/01/11 00:53:20;;;;;;;302.23;103.93;;;-13.20;99.90;;;;;;5018986;28;20033;-78
2024/01/11 00:55:46;;;;;;;387.77;125.03;;;-13.20;99.90;;;;;;5022748;28;20060;-78
2024/01/11 00:58:11;;;;;;;473.20;154.97;;;-13.20;99.90;;;;;;5019043;28;20429;-84
2024/01/11 01:00:37;;;;;;;414.30;138.90;;;-13.10;99.90;;;;;;5021506;28;20021;-79
2024/01/11 01:03:03;;;;;;;344.87;121.60;;;-13.20;99.90;;;;;;5019540;28;20072;-79
2024/01/11 01:05:28;;;;;;;380.73;126.57;;;-13.20;99.90;;;;;;5020699;28;20498;-81
2024/01/11 01:07:54;;;;;;;346.00;121.33;;;-13.20;99.90;;;;;;5019204;28;20045;-78
2024/01/11 01:10:20;;;;;;;366.47;121.30;;;-13.20;99.90;;;;;;5011299;28;20444;-81
2024/01/11 01:12:45;;;;;;;344.40;120.03;;;-13.20;99.90;;;;;;5010635;28;20026;-82
2024/01/11 01:15:11;;;;;;;361.03;121.03;;;-13.20;99.90;;;;;;5022976;28;20057;-78
2024/01/11 01:17:37;;;;;;;361.43;120.10;;;-13.30;99.90;;;;;;5021937;28;20029;-80
2024/01/11 01:20:03;;;;;;;370.83;126.50;;;-13.30;99.90;;;;;;5016543;28;20171;-78
2024/01/11 01:22:29;;;;;;;345.77;119.40;;;-13.30;99.90;;;;;;5017262;28;20029;-80
2024/01/11 01:24:54;;;;;;;332.63;115.07;;;-13.30;99.90;;;;;;5022318;28;20022;-78
2024/01/11 01:27:20;;;;;;;309.40;110.07;;;-13.30;99.90;;;;;;5020067;28;20026;-79
2024/01/11 01:29:46;;;;;;;311.70;113.27;;;-13.20;99.90;;;;;;5022436;28;20489;-76
2024/01/11 01:32:12;;;;;;;346.77;113.60;;;-13.20;99.90;;;;;;5021374;28;20019;-77
2024/01/11 01:34:37;;;;;;;376.10;121.47;;;-13.20;99.90;;;;;;5021764;28;20108;-77
2024/01/11 01:37:03;;;;;;;390.93;122.23;;;-13.30;99.90;;;;;;5020799;28;20021;-80
2024/01/11 01:39:28;;;;;;;340.20;120.50;;;-13.30;99.90;;;;;;5020667;28;20412;-80
2024/01/11 01:41:54;;;;;;;364.73;123.10;;;-13.30;99.90;;;;;;5020757;27;20363;-77
2024/01/11 01:44:20;;;;;;;350.97;120.40;;;-13.40;99.90;;;;;;5021325;28;20371;-81
2024/01/11 01:46:46;;;;;;;371.53;122.03;;;-13.30;99.90;;;;;;5020650;28;20067;-77
2024/01/11 01:49:13;;;;;;;352.13;120.27;;;-13.40;99.90;;;;;;5021228;28;20062;-80
2024/01/11 01:51:38;;;;;;;330.90;114.90;;;-13.40;99.90;;;;;;5019325;28;20026;-77
2024/01/11 01:54:05;;;;;;;337.07;116.23;;;-13.50;99.90;;;;;;5021768;28;20029;-78
2024/01/11 01:56:31;;;;;;;334.10;112.03;;;-13.50;99.90;;;;;;5020279;28;20014;-78
2024/01/11 01:59:00;;;;;;;306.47;104.00;;;-13.50;99.90;;;;;;5022919;28;20025;-76
2024/01/11 02:01:27;;;;;;;319.57;111.50;;;-13.50;99.90;;;;;;5018586;28;20022;-78
2024/01/11 02:03:54;;;;;;;326.50;111.40;;;-13.50;99.90;;;;;;5023117;28;20073;-78
2024/01/11 02:06:25;;;;;;;351.53;117.60;;;-13.50;99.90;;;;;;5019206;28;20386;-76
2024/01/11 02:08:55;;;;;;;316.60;111.77;;;-13.50;99.90;;;;;;5004006;28;20029;-77
2024/01/11 02:11:21;;;;;;;284.53;104.87;;;-13.60;99.90;;;;;;5009643;28;20032;-81
2024/01/11 02:13:47;;;;;;;347.23;112.40;;;-13.60;99.90;;;;;;5008951;28;20026;-76
2024/01/11 02:16:13;;;;;;;262.93;89.53;;;-13.60;99.90;;;;;;5009468;28;20055;-77
2024/01/11 02:18:39;;;;;;;230.87;90.23;;;-13.60;99.90;;;;;;5009187;28;20034;-77
2024/01/11 02:21:09;;;;;;;231.63;85.37;;;-13.60;99.90;;;;;;5022358;28;20033;-77
2024/01/11 02:23:42;;;;;;;252.30;87.50;;;-13.60;99.90;;;;;;4996684;28;20428;-81
2024/01/11 02:26:08;;;;;;;250.00;89.70;;;-13.50;99.90;;;;;;5024634;28;20037;-77
2024/01/11 02:28:34;;;;;;;288.57;102.73;;;-13.50;99.90;;;;;;5028570;28;20482;-76
2024/01/11 02:30:59;;;;;;;284.33;98.37;;;-13.50;99.90;;;;;;5028928;28;20018;-76
2024/01/11 02:33:25;;;;;;;330.67;106.70;;;-13.60;99.90;;;;;;5028561;28;20030;-77
2024/01/11 02:35:51;;;;;;;315.13;108.23;;;-13.70;99.90;;;;;;5029414;28;20390;-79
2024/01/11 02:38:16;;;;;;;298.13;104.53;;;-13.70;99.90;;;;;;5029695;28;20086;-81
2024/01/11 02:40:43;;;;;;;249.63;91.73;;;-13.80;99.90;;;;;;5028909;28;20044;-81
2024/01/11 02:43:10;;;;;;;239.10;87.73;;;-13.80;99.90;;;;;;5029903;28;20029;-83
2024/01/11 02:45:36;;;;;;;248.43;87.80;;;-13.70;99.90;;;;;;5029206;28;20025;-77
2024/01/11 02:48:02;;;;;;;252.70;88.43;;;-13.80;99.90;;;;;;5029377;28;20097;-77
2024/01/11 02:50:28;;;;;;;268.50;92.17;;;-13.80;99.90;;;;;;5026747;28;20108;-78
2024/01/11 02:52:53;;;;;;;256.77;92.40;;;-13.80;99.90;;;;;;5028324;28;20018;-79
2024/01/11 02:55:19;;;;;;;272.30;96.63;;;-13.80;99.90;;;;;;5027175;28;20102;-82
2024/01/11 02:57:44;;;;;;;317.17;101.50;;;-13.80;99.90;;;;;;5029466;28;20448;-76
2024/01/11 03:00:11;;;;;;;293.33;102.00;;;-13.80;99.90;;;;;;5027260;28;20116;-77
2024/01/11 03:02:38;;;;;;;308.47;105.53;;;-13.80;99.90;;;;;;5025342;28;20066;-77
2024/01/11 03:05:04;;;;;;;300.47;105.77;;;-13.80;99.90;;;;;;5021956;28;20053;-76
2024/01/11 03:07:30;;;;;;;337.73;110.03;;;-13.80;99.90;;;;;;5024077;28;20113;-78
2024/01/11 03:09:56;;;;;;;288.83;99.57;;;-13.80;99.90;;;;;;5006418;28;20026;-80
2024/01/11 03:12:22;;;;;;;247.10;88.50;;;-13.80;99.90;;;;;;5022599;28;20075;-80
2024/01/11 03:14:48;;;;;;;238.50;85.97;;;-13.90;99.90;;;;;;5011782;28;20399;-77
2024/01/11 03:17:13;;;;;;;246.70;84.90;;;-13.90;99.90;;;;;;5016652;28;20029;-77
2024/01/11 03:19:40;;;;;;;271.70;89.77;;;-13.90;99.90;;;;;;5009674;28;20018;-81
2024/01/11 03:22:06;;;;;;;237.00;88.80;;;-13.90;99.90;;;;;;5008427;28;20109;-78
2024/01/11 03:24:33;;;;;;;255.50;90.10;;;-13.90;99.90;;;;;;5008693;28;20028;-80
2024/01/11 03:26:58;;;;;;;255.13;94.60;;;-13.90;99.90;;;;;;5018512;28;20479;-77
2024/01/11 03:29:24;;;;;;;279.70;95.13;;;-13.90;99.90;;;;;;5018586;28;20097;-77
2024/01/11 03:31:50;;;;;;;245.10;84.47;;;-13.90;99.90;;;;;;5011202;28;20019;-82
2024/01/11 03:34:16;;;;;;;226.93;82.90;;;-14.00;99.90;;;;;;5010542;28;20513;-82
2024/01/11 03:36:42;;;;;;;226.50;82.77;;;-14.00;99.90;;;;;;5008615;28;20029;-82
2024/01/11 03:39:07;;;;;;;214.80;79.07;;;-14.00;99.90;;;;;;5011718;28;20022;-77
2024/01/11 03:41:33;;;;;;;241.83;83.17;;;-14.00;99.90;;;;;;5010749;28;20030;-77
2024/01/11 03:43:59;;;;;;;236.20;85.03;;;-14.00;99.90;;;;;;5010796;28;20030;-77
2024/01/11 03:46:24;;;;;;;231.90;85.43;;;-14.00;99.90;;;;;;5020791;28;20018;-77
2024/01/11 03:48:50;;;;;;;250.03;85.10;;;-14.00;99.90;;;;;;5005863;28;20029;-76
2024/01/11 03:51:16;;;;;;;280.80;94.13;;;-14.00;99.90;;;;;;5023873;28;20375;-76
2024/01/11 03:53:41;;;;;;;265.70;94.67;;;-14.00;99.90;;;;;;5028722;28;20030;-80
2024/01/11 03:56:07;;;;;;;284.43;99.30;;;-14.00;99.90;;;;;;5024358;28;20079;-79
2024/01/11 03:58:32;;;;;;;247.10;89.97;;;-14.00;99.90;;;;;;5017039;28;20030;-76
2024/01/11 04:00:59;;;;;;;250.60;90.30;;;-14.00;99.90;;;;;;5015516;28;20037;-79
2024/01/11 04:03:25;;;;;;;229.10;87.97;;;-14.00;99.90;;;;;;5015332;28;20072;-78
2024/01/11 04:05:50;;;;;;;235.07;85.17;;;-14.00;99.90;;;;;;5014654;28;20245;-77
2024/01/11 04:08:16;;;;;;;215.90;78.67;;;-14.00;99.90;;;;;;5002283;28;20372;-82
2024/01/11 04:10:42;;;;;;;252.83;84.80;;;-14.00;99.90;;;;;;5017034;28;20033;-76
2024/01/11 04:13:07;;;;;;;246.40;92.27;;;-14.00;99.90;;;;;;5019217;28;20025;-81
2024/01/11 04:15:33;;;;;;;248.37;85.53;;;-14.00;99.90;;;;;;5021384;28;20044;-76
2024/01/11 04:17:58;;;;;;;245.27;84.50;;;-14.00;99.90;;;;;;5018720;28;20033;-76
2024/01/11 04:20:24;;;;;;;257.43;87.00;;;-14.00;99.90;;;;;;5024317;28;20502;-81
2024/01/11 04:22:50;;;;;;;222.53;80.20;;;-14.10;99.90;;;;;;5011384;28;20021;-83
2024/01/11 04:25:16;;;;;;;228.00;80.53;;;-14.10;99.70;;;;;;5011001;28;20103;-78
2024/01/11 04:27:41;;;;;;;224.10;79.73;;;-14.20;99.90;;;;;;5019659;28;20029;-78
2024/01/11 04:30:07;;;;;;;216.63;80.90;;;-14.10;99.90;;;;;;5031355;28;20030;-81
2024/01/11 04:32:33;;;;;;;201.67;74.93;;;-14.10;99.90;;;;;;5030387;28;20394;-82
2024/01/11 04:34:58;;;;;;;216.07;76.07;;;-14.10;99.90;;;;;;5030093;28;20038;-77
2024/01/11 04:37:24;;;;;;;220.87;79.83;;;-14.10;99.90;;;;;;5022787;28;20030;-81
2024/01/11 04:39:49;;;;;;;213.27;77.63;;;-14.10;99.90;;;;;;5025249;28;20021;-80
2024/01/11 04:42:15;;;;;;;203.60;78.80;;;-14.00;99.90;;;;;;5030595;28;20024;-78
2024/01/11 04:44:41;;;;;;;201.73;73.73;;;-14.10;99.90;;;;;;5016997;28;20058;-78
2024/01/11 04:47:08;;;;;;;205.10;72.43;;;-14.10;99.90;;;;;;5023695;28;20478;-77
2024/01/11 04:49:34;;;;;;;210.37;75.57;;;-14.10;99.90;;;;;;5010313;28;20387;-78
2024/01/11 04:51:59;;;;;;;214.93;79.93;;;-14.10;99.90;;;;;;5010743;28;20022;-78
2024/01/11 04:54:25;;;;;;;259.33;86.90;;;-14.10;99.90;;;;;;5025118;28;20394;-78
2024/01/11 04:56:51;;;;;;;244.93;85.90;;;-14.10;99.90;;;;;;5030037;28;20018;-77
2024/01/11 04:59:16;;;;;;;290.50;94.10;;;-14.00;99.90;;;;;;5029182;28;20021;-82
2024/01/11 05:01:42;;;;;;;300.60;92.03;;;-14.00;99.90;;;;;;5029706;28;20166;-78
2024/01/11 05:04:08;;;;;;;239.73;81.47;;;-14.00;99.90;;;;;;5029630;28;20049;-77
2024/01/11 05:06:34;;;;;;;284.83;92.80;;;-13.90;99.90;;;;;;5029381;28;20025;-80
2024/01/11 05:08:59;;;;;;;237.37;83.07;;;-13.80;99.90;;;;;;5026034;28;20483;-78
2024/01/11 05:11:26;;;;;;;230.13;82.63;;;-13.80;99.90;;;;;;5030473;28;20022;-81
2024/01/11 05:13:52;;;;;;;186.67;70.43;;;-13.80;99.90;;;;;;5029447;28;20029;-79
2024/01/11 05:16:19;;;;;;;173.17;63.60;;;-13.70;99.90;;;;;;5029096;28;20014;-76
2024/01/11 05:18:45;;;;;;;187.77;67.03;;;-13.70;99.90;;;;;;5014768;28;20030;-77
2024/01/11 05:21:11;;;;;;;182.00;68.60;;;-13.60;99.90;;;;;;5018713;28;20075;-77
2024/01/11 05:23:36;;;;;;;192.40;69.87;;;-13.50;99.90;;;;;;5029217;28;20035;-77
2024/01/11 05:26:02;;;;;;;197.90;70.23;;;-13.40;99.90;;;;;;5011594;28;20050;-83
2024/01/11 05:28:28;;;;;;;350.20;108.53;;;-13.60;99.90;;;;;;5011697;28;20387;-82
2024/01/11 05:30:54;;;;;;;399.90;115.73;;;-13.60;99.90;;;;;;5011565;28;20030;-81
2024/01/11 05:33:20;;;;;;;228.93;76.97;;;-13.60;99.90;;;;;;5010293;28;20026;-77
2024/01/11 05:35:46;;;;;;;225.37;77.07;;;-13.70;99.90;;;;;;5018298;28;20034;-81
2024/01/11 05:38:11;;;;;;;171.13;68.60;;;-13.70;99.90;;;;;;5026853;28;20055;-78
2024/01/11 05:40:37;;;;;;;188.10;69.70;;;-13.70;99.90;;;;;;5010067;28;20022;-81
2024/01/11 05:43:03;;;;;;;183.03;69.17;;;-13.70;99.90;;;;;;5011424;28;20034;-80
2024/01/11 05:45:29;;;;;;;195.67;71.43;;;-13.70;99.90;;;;;;5011138;28;20057;-80
2024/01/11 05:47:54;;;;;;;216.30;78.37;;;-13.70;99.90;;;;;;5010606;28;20075;-78
2024/01/11 05:50:20;;;;;;;178.10;66.80;;;-13.60;99.90;;;;;;5012093;28;20026;-80
2024/01/11 05:52:46;;;;;;;309.67;98.50;;;-13.50;99.90;;;;;;5011139;28;20078;-79
2024/01/11 05:55:12;;;;;;;399.40;119.07;;;-13.30;99.90;;;;;;5011760;28;20100;-78
2024/01/11 05:57:37;;;;;;;294.50;103.20;;;-13.30;99.90;;;;;;5011921;28;20143;-78
2024/01/11 06:00:05;;;;;;;464.47;139.20;;;-13.30;99.90;;;;;;5010531;28;20029;-81
2024/01/11 06:02:31;;;;;;;471.23;140.80;;;-13.30;99.90;;;;;;5011925;28;20063;-81
2024/01/11 06:04:57;;;;;;;457.87;133.60;;;-13.20;99.90;;;;;;5014134;28;20042;-81
2024/01/11 06:07:23;;;;;;;442.30;135.47;;;-13.20;99.90;;;;;;5023680;28;20024;-82
2024/01/11 06:09:49;;;;;;;430.23;129.97;;;-13.10;99.90;;;;;;5020811;28;20022;-77
2024/01/11 06:12:15;;;;;;;391.40;126.77;;;-13.10;99.90;;;;;;5023259;28;20074;-76
2024/01/11 06:14:40;;;;;;;530.20;154.53;;;-13.20;99.90;;;;;;5023939;28;20043;-76
2024/01/11 06:17:06;;;;;;;375.70;115.70;;;-13.20;99.90;;;;;;5022921;28;20025;-79
2024/01/11 06:19:32;;;;;;;324.70;107.03;;;-13.20;99.90;;;;;;5009155;28;20056;-76
2024/01/11 06:21:58;;;;;;;391.47;117.87;;;-13.20;99.90;;;;;;5010791;28;20030;-79
2024/01/11 06:24:23;;;;;;;360.63;112.67;;;-13.20;99.90;;;;;;5010204;28;20025;-76
2024/01/11 06:26:49;;;;;;;238.53;82.63;;;-13.20;99.90;;;;;;5023496;28;20040;-79
2024/01/11 06:29:15;;;;;;;580.97;195.70;;;-13.20;99.90;;;;;;5017931;28;20034;-79
2024/01/11 06:31:41;;;;;;;440.67;134.37;;;-13.30;99.90;;;;;;5010033;28;20026;-77
2024/01/11 06:34:06;;;;;;;239.73;85.30;;;-13.20;99.90;;;;;;5014904;28;20061;-80
2024/01/11 06:36:32;;;;;;;225.03;73.27;;;-13.20;99.90;;;;;;5010761;28;20499;-77
2024/01/11 06:38:57;;;;;;;284.60;96.23;;;-13.10;99.90;;;;;;5022893;28;20098;-77
2024/01/11 06:41:24;;;;;;;240.30;83.90;;;-13.10;99.90;;;;;;5019499;28;20022;-80
2024/01/11 06:43:49;;;;;;;284.60;101.97;;;-13.00;99.90;;;;;;5016520;28;20022;-81
2024/01/11 06:46:20;;;;;;;344.67;111.67;;;-12.90;99.90;;;;;;5008020;28;20049;-80
2024/01/11 06:48:46;;;;;;;321.57;104.50;;;-12.80;99.90;;;;;;5010106;28;20105;-81
2024/01/11 06:51:15;;;;;;;443.27;136.20;;;-12.70;99.90;;;;;;5027744;28;20017;-78
2024/01/11 06:53:42;;;;;;;293.57;91.17;;;-12.50;99.90;;;;;;5007802;28;20467;-82
2024/01/11 06:56:15;;;;;;;223.87;88.77;;;-12.30;99.90;;;;;;5006152;28;20130;-81
2024/01/11 06:58:40;;;;;;;288.57;109.27;;;-12.10;99.90;;;;;;5008597;28;20026;-80
2024/01/11 07:01:06;;;;;;;216.40;83.47;;;-11.80;99.90;;;;;;5005777;28;20044;-80
2024/01/11 07:03:32;;;;;;;188.50;72.07;;;-11.60;99.90;;;;;;5007511;28;20398;-79
2024/01/11 07:05:57;;;;;;;209.67;79.53;;;-11.40;99.90;;;;;;5003622;28;20050;-81
2024/01/11 07:08:23;;;;;;;174.00;74.43;;;-11.20;99.90;;;;;;4999749;28;20387;-83
2024/01/11 07:10:48;;;;;;;323.63;118.33;;;-11.10;99.90;;;;;;5009847;28;20026;-79
2024/01/11 07:13:16;;;;;;;190.87;76.20;;;-10.90;99.90;;;;;;5019940;28;20026;-79
2024/01/11 07:15:44;;;;;;;205.60;75.80;;;-10.80;99.90;;;;;;5018413;28;20394;-78
2024/01/11 07:18:10;;;;;;;162.03;67.93;;;-10.60;99.90;;;;;;5005039;28;20046;-78
2024/01/11 07:20:35;;;;;;;185.70;77.90;;;-10.40;99.90;;;;;;5015205;28;20149;-79
2024/01/11 07:23:01;;;;;;;262.83;101.03;;;-10.30;99.90;;;;;;5015809;28;20403;-77
2024/01/11 07:25:27;;;;;;;142.40;58.63;;;-10.10;99.90;;;;;;5013214;28;20025;-81
2024/01/11 07:27:53;;;;;;;140.03;56.87;;;-9.90;99.90;;;;;;5005948;28;20041;-80
2024/01/11 07:30:19;;;;;;;130.70;56.83;;;-9.80;99.90;;;;;;5012518;28;20076;-79
2024/01/11 07:32:44;;;;;;;137.07;56.23;;;-9.70;99.90;;;;;;5011452;28;20802;-79
2024/01/11 07:35:10;;;;;;;149.33;61.77;;;-9.60;99.90;;;;;;5010743;28;20038;-77
2024/01/11 07:37:39;;;;;;;151.03;59.43;;;-9.40;99.90;;;;;;5011443;28;20154;-77
2024/01/11 07:40:10;;;;;;;140.90;60.60;;;-9.30;99.90;;;;;;5023367;28;20040;-77
2024/01/11 07:42:38;;;;;;;135.20;56.93;;;-9.20;99.90;;;;;;5016685;28;20507;-78
2024/01/11 07:45:05;;;;;;;149.37;62.73;;;-9.20;99.90;;;;;;5022394;28;20011;-82
2024/01/11 07:47:31;;;;;;;139.30;57.93;;;-9.10;99.90;;;;;;5018747;28;20086;-83
2024/01/11 07:49:57;;;;;;;140.90;61.17;;;-9.10;99.90;;;;;;5023661;28;20014;-82
2024/01/11 07:52:23;;;;;;;150.13;58.80;;;-9.00;99.90;;;;;;5011560;28;20492;-81
2024/01/11 07:54:48;;;;;;;141.00;58.60;;;-9.00;99.90;;;;;;5014007;28;20041;-81
2024/01/11 07:57:14;;;;;;;142.57;60.80;;;-9.00;99.90;;;;;;5020726;28;20074;-81
2024/01/11 07:59:40;;;;;;;145.97;61.10;;;-8.90;99.90;;;;;;5023117;28;20014;-85
2024/01/11 08:02:07;;;;;;;136.53;60.17;;;-8.90;99.90;;;;;;5014526;28;20506;-84
2024/01/11 08:04:33;;;;;;;133.27;56.23;;;-8.80;99.90;;;;;;5010986;28;20099;-82
2024/01/11 08:07:01;;;;;;;148.80;60.20;;;-8.80;99.90;;;;;;5011193;28;20030;-82
2024/01/11 08:09:28;;;;;;;130.20;54.17;;;-8.70;99.90;;;;;;5014085;28;20478;-78
2024/01/11 08:11:54;;;;;;;135.50;56.50;;;-8.70;99.90;;;;;;5010612;28;20022;-78
2024/01/11 08:14:20;;;;;;;125.90;56.47;;;-8.60;99.90;;;;;;5010683;28;20040;-78
2024/01/11 08:16:46;;;;;;;117.37;53.70;;;-8.50;99.90;;;;;;5024930;28;20060;-82
2024/01/11 08:19:15;;;;;;;131.93;57.17;;;-8.50;99.90;;;;;;5013355;28;20042;-78
2024/01/11 08:21:41;;;;;;;140.37;56.13;;;-8.50;99.90;;;;;;5011047;28;20399;-78
2024/01/11 08:24:07;;;;;;;135.83;56.50;;;-8.50;99.90;;;;;;5029292;28;20013;-81
2024/01/11 08:26:33;;;;;;;120.63;51.90;;;-8.40;99.90;;;;;;5018175;28;20033;-78
2024/01/11 08:28:59;;;;;;;121.57;57.70;;;-8.30;99.90;;;;;;5016939;28;20038;-81
2024/01/11 08:31:25;;;;;;;133.10;56.07;;;-8.20;99.90;;;;;;5012869;28;20104;-78
2024/01/11 08:33:50;;;;;;;142.13;59.60;;;-8.10;99.90;;;;;;5011693;28;20014;-78
2024/01/11 08:36:16;;;;;;;148.83;62.50;;;-8.00;99.90;;;;;;5016910;28;20034;-78
2024/01/11 08:38:42;;;;;;;143.60;58.43;;;-7.90;99.90;;;;;;5019238;28;20022;-83
2024/01/11 08:41:07;;;;;;;137.40;62.00;;;-7.80;99.90;;;;;;5024282;28;20045;-82
2024/01/11 08:43:33;;;;;;;142.17;58.73;;;-7.80;99.90;;;;;;5017544;28;20482;-80
2024/01/11 08:45:59;;;;;;;145.50;60.77;;;-7.70;99.90;;;;;;5019614;28;20534;-77
2024/01/11 08:48:25;;;;;;;149.82;59.13;;;-7.70;99.90;;;;;;5018406;28;20483;-83
2024/01/11 08:50:51;;;;;;;132.73;58.90;;;-7.60;99.90;;;;;;5015159;28;20024;-81
2024/01/11 08:53:17;;;;;;;134.90;59.30;;;-7.50;99.90;;;;;;5011431;28;20483;-77
2024/01/11 08:55:43;;;;;;;131.03;58.40;;;-7.40;99.90;;;;;;5010759;28;20041;-82
2024/01/11 08:58:10;;;;;;;136.37;57.80;;;-7.30;99.90;;;;;;5008933;28;20030;-77
2024/01/11 09:00:36;;;;;;;117.90;54.70;;;-7.30;99.90;;;;;;5015418;28;20075;-78
2024/01/11 09:03:03;;;;;;;128.43;61.00;;;-7.20;99.90;;;;;;5009563;28;20022;-78
2024/01/11 09:05:29;;;;;;;128.97;60.57;;;-7.10;99.90;;;;;;5023491;28;20041;-78
2024/01/11 09:07:55;;;;;;;139.63;59.53;;;-7.00;99.90;;;;;;5029366;28;20032;-82
2024/01/11 09:10:21;;;;;;;154.93;69.10;;;-7.00;99.90;;;;;;5011774;28;20026;-82
2024/01/11 09:12:47;;;;;;;143.20;62.67;;;-6.90;99.90;;;;;;5027425;28;20036;-82
2024/01/11 09:15:12;;;;;;;160.32;70.57;;;-6.80;99.90;;;;;;5014356;28;20026;-79
2024/01/11 09:17:38;;;;;;;173.53;73.07;;;-6.80;99.90;;;;;;5016433;28;20021;-78
2024/01/11 09:20:04;;;;;;;131.88;59.10;;;-6.70;99.90;;;;;;5022428;28;20033;-78
2024/01/11 09:22:30;;;;;;;128.00;58.17;;;-6.60;99.90;;;;;;5030332;28;20560;-84
2024/01/11 09:24:56;;;;;;;140.38;59.03;;;-6.50;99.90;;;;;;5017069;28;20104;-78
2024/01/11 09:27:22;;;;;;;126.70;57.42;;;-6.40;99.90;;;;;;5009180;28;20118;-79
2024/01/11 09:29:48;;;;;;;121.97;54.90;;;-6.30;99.90;;;;;;5016791;28;20022;-77
2024/01/11 09:32:13;;;;;;;112.57;50.25;;;-6.20;99.90;;;;;;5015518;28;20028;-82
2024/01/11 09:34:39;;;;;;;131.77;55.25;;;-6.10;99.90;;;;;;5012077;28;20117;-79
2024/01/11 09:37:05;;;;;;;139.85;63.58;;;-5.90;99.90;;;;;;5013134;28;20060;-82
2024/01/11 09:39:31;;;;;;;107.90;50.70;;;-5.80;99.90;;;;;;5012193;28;20041;-78
2024/01/11 09:42:07;;;;;;;113.30;50.67;;;-5.70;99.90;;;;;;5011709;28;20030;-81
2024/01/11 09:44:33;;;;;;;113.15;48.75;;;-5.50;99.90;;;;;;5021739;28;20064;-82
2024/01/11 09:47:01;;;;;;;113.93;47.67;;;-5.50;99.90;;;;;;5025502;28;20391;-82
2024/01/11 09:49:30;;;;;;;169.25;62.10;;;-5.40;99.90;;;;;;5026682;28;20022;-84
2024/01/11 09:51:56;;;;;;;117.85;47.50;;;-5.30;96.70;;;;;;5020757;28;20030;-83
2024/01/11 09:54:24;;;;;;;141.65;56.08;;;-5.10;91.70;;;;;;5021305;28;20393;-82
2024/01/11 09:56:53;;;;;;;134.48;51.85;;;-5.00;86.70;;;;;;5028121;28;20531;-81
2024/01/11 09:59:22;;;;;;;85.05;39.55;;;-4.90;83.90;;;;;;5025978;28;20025;-81
2024/01/11 10:01:48;;;;;;;110.50;43.78;;;-4.80;80.70;;;;;;5028778;28;20025;-83
2024/01/11 10:04:15;;;;;;;113.25;45.22;;;-4.80;78.60;;;;;;5029046;28;20060;-81
2024/01/11 10:06:41;;;;;;;104.25;45.67;;;-4.70;77.90;;;;;;5012699;28;20020;-81
2024/01/11 10:09:08;;;;;;;123.40;49.17;;;-4.70;77.10;;;;;;5012850;28;20038;-82
2024/01/11 10:11:34;;;;;;;113.70;45.72;;;-4.60;76.20;;;;;;5005151;28;20089;-80
2024/01/11 10:14:01;;;;;;;112.43;44.67;;;-4.50;75.90;;;;;;5008035;28;20172;-77
2024/01/11 10:16:28;;;;;;;118.35;46.22;;;-4.40;75.30;;;;;;5006932;28;20431;-81
2024/01/11 10:18:55;;;;;;;160.07;63.88;;;-4.30;75.40;;;;;;5007449;28;20024;-78
2024/01/11 10:21:21;;;;;;;86.60;37.28;;;-4.20;74.20;;;;;;4993445;28;20035;-79
2024/01/11 10:23:47;;;;;;;92.82;37.30;;;-4.20;73.50;;;;;;5000885;28;20036;-78
2024/01/11 10:26:16;;;;;;;118.45;43.35;;;-4.10;73.30;;;;;;5007868;28;20021;-80
2024/01/11 10:28:44;;;;;;;106.55;43.83;;;-4.00;72.70;;;;;;5012326;28;20368;-79
2024/01/11 10:31:10;;;;;;;94.38;38.80;;;-4.00;72.10;;;;;;5009023;28;20105;-80
2024/01/11 10:33:36;;;;;;;115.45;46.40;;;-3.90;71.80;;;;;;5008302;28;20117;-83
2024/01/11 10:36:01;;;;;;;75.50;36.88;;;-3.90;72.00;;;;;;5013942;28;20065;-83
2024/01/11 10:38:30;;;;;;;72.85;34.15;;;-3.90;71.30;;;;;;5003498;28;20132;-81
2024/01/11 10:41:00;;;;;;;78.88;32.38;;;-3.80;71.20;;;;;;5000490;28;20427;-81
2024/01/11 10:43:29;;;;;;;69.72;29.75;;;-3.80;71.00;;;;;;5011556;28;20042;-81
2024/01/11 10:45:59;;;;;;;69.70;30.10;;;-3.80;70.10;;;;;;5007138;28;20105;-78
2024/01/11 10:48:25;;;;;;;68.70;31.15;;;-3.80;70.70;;;;;;5012736;28;20062;-78
2024/01/11 10:51:01;;;;;;;88.90;35.67;;;-3.70;70.90;;;;;;5011301;28;20034;-77
2024/01/11 10:53:45;;;;;;;104.18;41.95;;;-3.60;70.70;;;;;;5008359;28;20863;-81
2024/01/11 10:56:12;;;;;;;83.95;33.13;;;-3.60;70.60;;;;;;5004447;28;20037;-78
2024/01/11 10:58:40;;;;;;;107.18;41.35;;;-3.60;70.70;;;;;;5014404;28;20038;-78
2024/01/11 11:01:07;;;;;;;82.55;34.72;;;-3.60;70.60;;;;;;5015641;28;21695;-78
2024/01/11 11:03:36;;;;;;;75.50;31.75;;;-3.60;71.30;;;;;;5013206;28;20110;-79
2024/01/11 11:06:03;;;;;;;108.93;40.65;;;-3.70;71.50;;;;;;5010865;28;20022;-78
2024/01/11 11:08:29;;;;;;;108.35;41.47;;;-3.70;71.70;;;;;;5002905;28;20396;-79
2024/01/11 11:11:00;;;;;;;171.10;61.85;;;-3.70;71.80;;;;;;5013007;28;20044;-80
2024/01/11 11:13:26;;;;;;;165.05;50.97;;;-3.70;72.10;;;;;;5020389;28;20543;-79
2024/01/11 11:15:53;;;;;;;133.52;48.03;;;-3.70;72.60;;;;;;5013800;28;20374;-79
2024/01/11 11:18:20;;;;;;;183.02;60.50;;;-3.70;71.90;;;;;;5018001;28;20029;-78
2024/01/11 11:20:47;;;;;;;96.28;38.20;;;-3.70;72.70;;;;;;5010178;28;20022;-80
2024/01/11 11:23:17;;;;;;;127.65;44.67;;;-3.70;72.90;;;;;;5015133;28;20106;-78
2024/01/11 11:25:47;;;;;;;98.45;39.13;;;-3.60;73.00;;;;;;5013489;28;20102;-80
2024/01/11 11:28:14;;;;;;;100.80;40.78;;;-3.60;73.30;;;;;;5020998;28;20124;-79
2024/01/11 11:30:47;;;;;;;64.93;28.48;;;-3.60;73.20;;;;;;5012328;28;20018;-79
2024/01/11 11:33:23;;;;;;;87.57;38.63;;;-3.60;72.50;;;;;;5005324;28;20534;-79
2024/01/11 11:35:56;;;;;;;70.53;30.50;;;-3.50;73.20;;;;;;5019388;28;20029;-78
2024/01/11 11:38:30;;;;;;;116.70;43.88;;;-3.50;73.40;;;;;;5010230;28;20125;-79
2024/01/11 11:40:58;;;;;;;146.55;51.17;;;-3.40;73.60;;;;;;5003581;28;20029;-79
2024/01/11 11:43:26;;;;;;;96.57;35.47;;;-3.30;73.60;;;;;;5014491;28;20075;-82
2024/01/11 11:45:52;;;;;;;414.08;137.73;;;-3.30;73.60;;;;;;5014283;28;20041;-81
2024/01/11 11:48:36;;;;;;;140.07;56.38;;;-3.20;73.70;;;;;;5004766;28;20057;-78
2024/01/11 11:51:12;;;;;;;63.70;30.58;;;-3.20;74.00;;;;;;5003146;28;20383;-77
2024/01/11 11:53:39;;;;;;;74.43;30.90;;;-3.20;73.80;;;;;;5002862;28;20038;-81
2024/01/11 11:56:06;;;;;;;71.30;30.30;;;-3.20;73.60;;;;;;5021090;28;20057;-81
2024/01/11 11:58:33;;;;;;;87.60;38.60;;;-3.20;73.70;;;;;;5014069;28;20092;-81
2024/01/11 12:00:59;;;;;;;102.82;39.38;;;-3.20;73.70;;;;;;5014774;28;20053;-79
2024/01/11 12:03:32;;;;;;;86.03;35.92;;;-3.20;73.80;;;;;;5022931;28;20044;-79
2024/01/11 12:05:59;;;;;;;60.40;28.05;;;-3.20;74.20;;;;;;5011902;28;20487;-80
2024/01/11 12:08:25;;;;;;;63.53;29.35;;;-3.20;74.70;;;;;;5010927;28;20110;-79